Flight Track Log - Related Links

Times and Time Zones

All times are in EDT time to prevent confusion due to time zone crossing. See the N53NW flight status page for this flight to view local times or setup timezone preferences in your user account.

Time Position Orientation Groundspeed Altitude Reporting Facility
EDT Latitude Longitude Course Direction KTS MPH feet Rate Location/Type
Fri 02:28:27 PM 27.4000 -82.5667 270° West 173 199 700  Level Tampa TRACON
Fri 02:29:52 PM 27.4000 -82.6500 270° West 230 265 4,000 2,520 Climbing Tampa TRACON
Fri 02:30:57 PM 27.4000 -82.7333 270° West 278 320 7,000 2,567 Climbing Tampa TRACON
Fri 02:33:06 PM 27.5347 -82.8092 333° Northwest 282 325 12,300 2,476 Climbing Miami Center
Fri 02:34:06 PM 27.6083 -82.8458 336° Northwest 282 325 14,800 2,500 Climbing Miami Center
Fri 02:35:06 PM 27.6819 -82.8847 335° Northwest 282 325 17,300 1,107 Climbing Miami Center
Fri 02:36:54 PM 27.8264 -82.9631 334° Northwest 312 359 17,900 214 Climbing Jacksonville Center
Fri 02:37:54 PM 27.9119 -82.9958 341° North 325 374 17,900  Level Jacksonville Center
Fri 02:38:54 PM 27.9975 -82.9914 North 310 357 17,900  Level Jacksonville Center
Fri 02:39:54 PM 28.0811 -82.9561 20° North 303 349 17,900  Level Jacksonville Center
Fri 02:40:54 PM 28.1644 -82.9233 19° North 309 356 17,900  Level Jacksonville Center
Fri 02:41:54 PM 28.2564 -82.8831 21° North 309 356 17,900  Level Jacksonville Center
Fri 02:42:54 PM 28.3397 -82.8503 19° North 314 361 17,900  Level Jacksonville Center
Fri 02:43:54 PM 28.4253 -82.8122 21° North 314 361 17,900  Level Jacksonville Center
Fri 02:44:54 PM 28.5108 -82.7792 19° North 314 361 17,900  Level Jacksonville Center
Fri 02:45:54 PM 28.5964 -82.7411 21° North 314 361 17,900  Level Jacksonville Center
Fri 02:46:54 PM 28.6819 -82.7056 20° North 319 367 17,900  Level Jacksonville Center
Fri 02:47:54 PM 28.7569 -82.6700 23° Northeast 314 361 17,900  Level Jacksonville Center
Fri 02:49:00 PM 28.8391 -82.6327 22° Northeast  Level FlightAware Approximate
Fri 02:49:54 PM 28.9258 -82.5983 22° Northeast 314 361 17,900  Level Jacksonville Center
Fri 02:50:54 PM 29.0094 -82.5625 21° North 314 361 17,900  Level Jacksonville Center
Fri 02:51:54 PM 29.0928 -82.5267 21° North 314 361 17,900  Level Jacksonville Center
Fri 02:52:54 PM 29.1783 -82.4906 20° North 314 361 17,900  Level Jacksonville Center
Fri 02:53:54 PM 29.2617 -82.4569 19° North 309 356 17,900 61 Level Jacksonville Center
Fri 02:54:33 PM 29.3283 -82.4306 19° North 322 371 18,000  Climbing Jacksonville Center
Fri 02:55:54 PM 29.4283 -82.3822 23° Northeast 309 356 17,900 -43 Descending Jacksonville Center
Fri 02:56:54 PM 29.5139 -82.3486 19° North 309 356 17,900 -550 Level Jacksonville Center
Fri 02:57:54 PM 29.5950 -82.3122 21° North 309 356 16,800 -1,200 Descending Jacksonville Center
Fri 02:58:54 PM 29.6806 -82.2758 20° North 309 356 15,500 -1,450 Descending Jacksonville Center
Fri 02:59:54 PM 29.7575 -82.2250 30° Northeast 309 356 13,900 -1,850 Descending Jacksonville Center
Fri 03:00:54 PM 29.8344 -82.1742 30° Northeast 309 356 11,800 -1,950 Descending Jacksonville Center
Fri 03:01:54 PM 29.9094 -82.1378 23° Northeast 302 348 10,000 -1,550 Descending Jacksonville Center
Fri 03:02:54 PM 29.9800 -82.1036 23° Northeast 289 333 8,700 -1,600 Descending Jacksonville Center
Fri 03:03:54 PM 30.0531 -82.0694 22° Northeast 283 326 6,800 -1,867 Descending Jacksonville Center
Fri 03:04:24 PM 30.0925 -82.0500 23° Northeast 271 312 5,900 -1,187 Descending Jacksonville Center
Fri 03:05:25 PM 30.1633 -82.0206 20° North 261 300 5,000 -443 Descending Jacksonville Center
Fri 03:06:26 PM 30.2342 -81.9836 24° Northeast 270 311 5,000  Level Jacksonville Center
Fri 03:07:27 PM 30.2944 -81.9592 19° North 231 266 5,000 -891 Level Jacksonville Center
Fri 03:08:34 PM 30.3672 -81.9247 22° Northeast 261 300 3,100 -1,359 Descending Jacksonville Center
Fri 03:09:35 PM 30.4336 -81.8831 28° Northeast 265 305 2,100 -541 Descending Jacksonville Center
Fri 03:10:36 PM 30.4583 -81.8250 64° Northeast 185 213 2,000 -362 Descending Jacksonville Center
Fri 03:11:31 PM 30.4706 -81.7814 72° East 154 177 1,400 -621 Descending Jacksonville Center
Fri 03:12:32 PM 30.4806 -81.7403 74° East 123 142 800 -590 Descending Jacksonville Center
Fri 03:13:33 PM 30.4928 -81.7064 67° East 122 140 200 -590 Descending Jacksonville Center
Fri 03:15:00 PM 30.4833 -81.6833 33° Northeast  Level FlightAware Approximate
Fri 03:22:00 PM 30.4941 -81.6879 33° Northeast  Level Estimated

Login

Don't have an account? Register now (free) for customized features, flight alerts, and more!